Time;durP1;ratioP1;P1;durP2;ratioP2;P2;SDS_P1;SDS_P2;PMS_P1;PMS_P2;Temp;Humidity;BMP_temperature;BMP_pressure;BME280_temperature;BME280_humidity;BME280_pressure;Samples;Min_cycle;Max_cycle;Signal;HPM_P1;HPM_P2
2022/07/17 00:00:43;;;;;;;6;4.199999;;;;;;;14.8;51.22754;96080.31;;;;
2022/07/17 00:01:44;;;;;;;6;4.199999;;;;;;;14.8;51.22754;96080.31;;;;
2022/07/17 00:02:44;;;;;;;6;4.199999;;;;;;;14.8;51.22754;96080.31;;;;
2022/07/17 00:03:45;;;;;;;4.1;3.7;;;;;;;14.6;51.65137;96070.37;;;;
2022/07/17 00:04:45;;;;;;;4.1;3.7;;;;;;;14.6;51.65137;96070.37;;;;
2022/07/17 00:05:46;;;;;;;4.1;3.7;;;;;;;14.6;51.65137;96070.37;;;;
2022/07/17 00:06:47;;;;;;;4.1;3.7;;;;;;;14.6;51.65137;96070.37;;;;
2022/07/17 00:07:49;;;;;;;4.1;3.7;;;;;;;14.6;51.65137;96070.37;;;;
2022/07/17 00:08:50;;;;;;;4.1;3.7;;;;;;;14.6;51.65137;96070.37;;;;
2022/07/17 00:09:50;;;;;;;4.1;3.7;;;;;;;14.6;51.65137;96070.37;;;;
2022/07/17 00:10:51;;;;;;;4.1;3.7;;;;;;;14.6;51.65137;96070.37;;;;
2022/07/17 00:11:51;;;;;;;4.1;3.7;;;;;;;14.6;51.65137;96070.37;;;;
2022/07/17 00:12:52;;;;;;;4.1;3.7;;;;;;;14.6;51.65137;96070.37;;;;
2022/07/17 00:13:53;;;;;;;4.1;3.7;;;;;;;14.6;51.65137;96070.37;;;;
2022/07/17 00:14:53;;;;;;;6.400001;3.5;;;;;;;14.48;51.99902;96076.49;;;;
2022/07/17 00:15:54;;;;;;;6.400001;3.5;;;;;;;14.48;51.99902;96076.49;;;;
2022/07/17 00:16:55;;;;;;;6.400001;3.5;;;;;;;14.48;51.99902;96076.49;;;;
2022/07/17 00:17:56;;;;;;;6.400001;3.5;;;;;;;14.48;51.99902;96076.49;;;;
2022/07/17 00:18:57;;;;;;;6.400001;3.5;;;;;;;14.48;51.99902;96076.49;;;;
2022/07/17 00:19:57;;;;;;;6.400001;3.5;;;;;;;14.48;51.99902;96076.49;;;;
2022/07/17 00:20:58;;;;;;;6.400001;3.5;;;;;;;14.48;51.99902;96076.49;;;;
2022/07/17 00:21:58;;;;;;;6.400001;3.5;;;;;;;14.48;51.99902;96076.49;;;;
2022/07/17 00:22:59;;;;;;;6.400001;3.5;;;;;;;14.48;51.99902;96076.49;;;;
2022/07/17 00:23:59;;;;;;;6.400001;3.5;;;;;;;14.48;51.99902;96076.49;;;;
2022/07/17 00:25:00;;;;;;;3.75;3.35;;;;;;;14.3;52.4248;96064.95;;;;
2022/07/17 00:26:00;;;;;;;3.75;3.35;;;;;;;14.3;52.4248;96064.95;;;;
2022/07/17 00:27:01;;;;;;;3.75;3.35;;;;;;;14.3;52.4248;96064.95;;;;
2022/07/17 00:28:01;;;;;;;3.75;3.35;;;;;;;14.3;52.4248;96064.95;;;;
2022/07/17 00:29:03;;;;;;;3.75;3.35;;;;;;;14.3;52.4248;96064.95;;;;
2022/07/17 00:30:04;;;;;;;3.75;3.35;;;;;;;14.3;52.4248;96064.95;;;;
2022/07/17 00:31:05;;;;;;;3.75;3.35;;;;;;;14.3;52.4248;96064.95;;;;
2022/07/17 00:32:06;;;;;;;3.75;3.35;;;;;;;14.3;52.4248;96064.95;;;;
2022/07/17 00:33:06;;;;;;;3.75;3.35;;;;;;;14.3;52.4248;96064.95;;;;
2022/07/17 00:34:07;;;;;;;3.75;3.35;;;;;;;14.3;52.4248;96064.95;;;;
2022/07/17 00:35:08;;;;;;;3.75;3.35;;;;;;;14.3;52.4248;96064.95;;;;
2022/07/17 00:36:10;;;;;;;3.7;3.3;;;;;;;14.21;52.76367;96072.37;;;;
2022/07/17 00:37:10;;;;;;;3.7;3.3;;;;;;;14.21;52.76367;96072.37;;;;
2022/07/17 00:38:11;;;;;;;3.7;3.3;;;;;;;14.21;52.76367;96072.37;;;;
2022/07/17 00:39:11;;;;;;;3.7;3.3;;;;;;;14.21;52.76367;96072.37;;;;
2022/07/17 00:40:12;;;;;;;3.7;3.3;;;;;;;14.21;52.76367;96072.37;;;;
2022/07/17 00:41:18;;;;;;;3.7;3.3;;;;;;;14.21;52.76367;96072.37;;;;
2022/07/17 00:42:18;;;;;;;3.7;3.3;;;;;;;14.21;52.76367;96072.37;;;;
2022/07/17 00:43:19;;;;;;;3.7;3.3;;;;;;;14.21;52.76367;96072.37;;;;
2022/07/17 00:44:19;;;;;;;3.7;3.3;;;;;;;14.21;52.76367;96072.37;;;;
2022/07/17 00:45:24;;;;;;;3.7;3.3;;;;;;;14.21;52.76367;96072.37;;;;
2022/07/17 00:46:24;;;;;;;4.1;3.3;;;;;;;14.07;53.16113;96066.39;;;;
2022/07/17 00:47:25;;;;;;;4.1;3.3;;;;;;;14.07;53.16113;96066.39;;;;
2022/07/17 00:48:26;;;;;;;4.1;3.3;;;;;;;14.07;53.16113;96066.39;;;;
2022/07/17 00:49:27;;;;;;;4.1;3.3;;;;;;;14.07;53.16113;96066.39;;;;
2022/07/17 00:50:28;;;;;;;4.1;3.3;;;;;;;14.07;53.16113;96066.39;;;;
2022/07/17 00:51:30;;;;;;;4.1;3.3;;;;;;;14.07;53.16113;96066.39;;;;
2022/07/17 00:52:32;;;;;;;4.1;3.3;;;;;;;14.07;53.16113;96066.39;;;;
2022/07/17 00:53:32;;;;;;;4.1;3.3;;;;;;;14.07;53.16113;96066.39;;;;
2022/07/17 00:54:35;;;;;;;4.1;3.3;;;;;;;14.07;53.16113;96066.39;;;;
2022/07/17 00:55:37;;;;;;;4.1;3.3;;;;;;;14.07;53.16113;96066.39;;;;
2022/07/17 00:56:40;;;;;;;4.65;3.05;;;;;;;13.97;53.52051;96062.5;;;;
2022/07/17 00:57:45;;;;;;;4.65;3.05;;;;;;;13.97;53.52051;96062.5;;;;
2022/07/17 00:58:48;;;;;;;4.65;3.05;;;;;;;13.97;53.52051;96062.5;;;;
2022/07/17 00:59:49;;;;;;;4.65;3.05;;;;;;;13.97;53.52051;96062.5;;;;
2022/07/17 01:00:50;;;;;;;4.65;3.05;;;;;;;13.97;53.52051;96062.5;;;;
2022/07/17 01:01:53;;;;;;;4.65;3.05;;;;;;;13.97;53.52051;96062.5;;;;
2022/07/17 01:02:53;;;;;;;4.65;3.05;;;;;;;13.97;53.52051;96062.5;;;;
2022/07/17 01:03:55;;;;;;;4.65;3.05;;;;;;;13.97;53.52051;96062.5;;;;
2022/07/17 01:04:55;;;;;;;4.65;3.05;;;;;;;13.97;53.52051;96062.5;;;;
2022/07/17 01:05:56;;;;;;;4.65;3.05;;;;;;;13.97;53.52051;96062.5;;;;
2022/07/17 01:06:56;;;;;;;4.65;3.05;;;;;;;13.97;53.52051;96062.5;;;;
2022/07/17 01:07:57;;;;;;;3.8;3.25;;;;;;;13.79;53.96777;96066.38;;;;
2022/07/17 01:08:58;;;;;;;3.8;3.25;;;;;;;13.79;53.96777;96066.38;;;;
2022/07/17 01:09:58;;;;;;;3.8;3.25;;;;;;;13.79;53.96777;96066.38;;;;
2022/07/17 01:10:59;;;;;;;3.8;3.25;;;;;;;13.79;53.96777;96066.38;;;;
2022/07/17 01:12:00;;;;;;;3.8;3.25;;;;;;;13.79;53.96777;96066.38;;;;
2022/07/17 01:13:00;;;;;;;3.8;3.25;;;;;;;13.79;53.96777;96066.38;;;;
2022/07/17 01:14:02;;;;;;;3.8;3.25;;;;;;;13.79;53.96777;96066.38;;;;
2022/07/17 01:15:03;;;;;;;3.8;3.25;;;;;;;13.79;53.96777;96066.38;;;;
2022/07/17 01:16:04;;;;;;;3.8;3.25;;;;;;;13.79;53.96777;96066.38;;;;
2022/07/17 01:17:06;;;;;;;3.8;3.25;;;;;;;13.79;53.96777;96066.38;;;;
2022/07/17 01:18:07;;;;;;;3.55;3.25;;;;;;;13.68;54.33496;96063.03;;;;
2022/07/17 01:19:09;;;;;;;3.55;3.25;;;;;;;13.68;54.33496;96063.03;;;;
2022/07/17 01:20:11;;;;;;;3.55;3.25;;;;;;;13.68;54.33496;96063.03;;;;
2022/07/17 01:21:12;;;;;;;3.55;3.25;;;;;;;13.68;54.33496;96063.03;;;;
2022/07/17 01:22:12;;;;;;;3.55;3.25;;;;;;;13.68;54.33496;96063.03;;;;
2022/07/17 01:23:13;;;;;;;3.55;3.25;;;;;;;13.68;54.33496;96063.03;;;;
2022/07/17 01:24:14;;;;;;;3.55;3.25;;;;;;;13.68;54.33496;96063.03;;;;
2022/07/17 01:25:16;;;;;;;3.55;3.25;;;;;;;13.68;54.33496;96063.03;;;;
2022/07/17 01:26:22;;;;;;;3.55;3.25;;;;;;;13.68;54.33496;96063.03;;;;
2022/07/17 01:27:23;;;;;;;3.55;3.25;;;;;;;13.68;54.33496;96063.03;;;;
2022/07/17 01:28:23;;;;;;;3.55;3.25;;;;;;;13.68;54.33496;96063.03;;;;
2022/07/17 01:29:24;;;;;;;4.5;3.7;;;;;;;13.51;54.68457;96059.66;;;;
2022/07/17 01:30:24;;;;;;;4.5;3.7;;;;;;;13.51;54.68457;96059.66;;;;
2022/07/17 01:31:25;;;;;;;4.5;3.7;;;;;;;13.51;54.68457;96059.66;;;;
2022/07/17 01:32:25;;;;;;;4.5;3.7;;;;;;;13.51;54.68457;96059.66;;;;
2022/07/17 01:33:31;;;;;;;4.5;3.7;;;;;;;13.51;54.68457;96059.66;;;;
2022/07/17 01:34:32;;;;;;;4.5;3.7;;;;;;;13.51;54.68457;96059.66;;;;
2022/07/17 01:35:32;;;;;;;4.5;3.7;;;;;;;13.51;54.68457;96059.66;;;;
2022/07/17 01:36:33;;;;;;;4.5;3.7;;;;;;;13.51;54.68457;96059.66;;;;
2022/07/17 01:37:34;;;;;;;4.5;3.7;;;;;;;13.51;54.68457;96059.66;;;;
2022/07/17 01:38:35;;;;;;;4.5;3.7;;;;;;;13.51;54.68457;96059.66;;;;
2022/07/17 01:40:08;;;;;;;4.15;3.3;;;;;;;13.39;55.00781;96059.2;;;;
2022/07/17 01:41:11;;;;;;;4.15;3.3;;;;;;;13.39;55.00781;96059.2;;;;
2022/07/17 01:42:12;;;;;;;4.15;3.3;;;;;;;13.39;55.00781;96059.2;;;;
2022/07/17 01:43:12;;;;;;;4.15;3.3;;;;;;;13.39;55.00781;96059.2;;;;
2022/07/17 01:44:13;;;;;;;4.15;3.3;;;;;;;13.39;55.00781;96059.2;;;;
2022/07/17 01:45:13;;;;;;;4.15;3.3;;;;;;;13.39;55.00781;96059.2;;;;
2022/07/17 01:46:16;;;;;;;4.15;3.3;;;;;;;13.39;55.00781;96059.2;;;;
2022/07/17 01:47:16;;;;;;;4.15;3.3;;;;;;;13.39;55.00781;96059.2;;;;
2022/07/17 01:48:17;;;;;;;4.15;3.3;;;;;;;13.39;55.00781;96059.2;;;;
2022/07/17 01:49:27;;;;;;;4.15;3.3;;;;;;;13.39;55.00781;96059.2;;;;
2022/07/17 01:50:28;;;;;;;5.199999;3.6;;;;;;;13.17;55.38281;96071.01;;;;
2022/07/17 01:51:28;;;;;;;5.199999;3.6;;;;;;;13.17;55.38281;96071.01;;;;
2022/07/17 01:52:29;;;;;;;5.199999;3.6;;;;;;;13.17;55.38281;96071.01;;;;
2022/07/17 01:53:29;;;;;;;5.199999;3.6;;;;;;;13.17;55.38281;96071.01;;;;
2022/07/17 01:54:30;;;;;;;5.199999;3.6;;;;;;;13.17;55.38281;96071.01;;;;
2022/07/17 01:55:30;;;;;;;5.199999;3.6;;;;;;;13.17;55.38281;96071.01;;;;
2022/07/17 01:56:31;;;;;;;5.199999;3.6;;;;;;;13.17;55.38281;96071.01;;;;
2022/07/17 01:57:32;;;;;;;5.199999;3.6;;;;;;;13.17;55.38281;96071.01;;;;
2022/07/17 01:58:33;;;;;;;5.199999;3.6;;;;;;;13.17;55.38281;96071.01;;;;
2022/07/17 01:59:34;;;;;;;5.199999;3.6;;;;;;;13.17;55.38281;96071.01;;;;
2022/07/17 02:00:35;;;;;;;5.199999;3.6;;;;;;;13.17;55.38281;96071.01;;;;
2022/07/17 02:01:35;;;;;;;4.45;3.65;;;;;;;13.01;55.92773;96067.97;;;;
2022/07/17 02:02:36;;;;;;;4.45;3.65;;;;;;;13.01;55.92773;96067.97;;;;
2022/07/17 02:03:37;;;;;;;4.45;3.65;;;;;;;13.01;55.92773;96067.97;;;;
2022/07/17 02:04:37;;;;;;;4.45;3.65;;;;;;;13.01;55.92773;96067.97;;;;
2022/07/17 02:05:39;;;;;;;4.45;3.65;;;;;;;13.01;55.92773;96067.97;;;;
2022/07/17 02:06:39;;;;;;;4.45;3.65;;;;;;;13.01;55.92773;96067.97;;;;
2022/07/17 02:07:40;;;;;;;4.45;3.65;;;;;;;13.01;55.92773;96067.97;;;;
2022/07/17 02:08:41;;;;;;;4.45;3.65;;;;;;;13.01;55.92773;96067.97;;;;
2022/07/17 02:09:41;;;;;;;4.45;3.65;;;;;;;13.01;55.92773;96067.97;;;;
2022/07/17 02:10:42;;;;;;;4.45;3.65;;;;;;;13.01;55.92773;96067.97;;;;
2022/07/17 02:11:43;;;;;;;4.5;3.900001;;;;;;;12.84;56.42773;96066.35;;;;
2022/07/17 02:12:43;;;;;;;4.5;3.900001;;;;;;;12.84;56.42773;96066.35;;;;
2022/07/17 02:13:44;;;;;;;4.5;3.900001;;;;;;;12.84;56.42773;96066.35;;;;
2022/07/17 02:14:44;;;;;;;4.5;3.900001;;;;;;;12.84;56.42773;96066.35;;;;
2022/07/17 02:15:45;;;;;;;4.5;3.900001;;;;;;;12.84;56.42773;96066.35;;;;
2022/07/17 02:16:46;;;;;;;4.5;3.900001;;;;;;;12.84;56.42773;96066.35;;;;
2022/07/17 02:17:46;;;;;;;4.5;3.900001;;;;;;;12.84;56.42773;96066.35;;;;
2022/07/17 02:18:47;;;;;;;4.5;3.900001;;;;;;;12.84;56.42773;96066.35;;;;
2022/07/17 02:19:47;;;;;;;4.5;3.900001;;;;;;;12.84;56.42773;96066.35;;;;
2022/07/17 02:20:49;;;;;;;4.5;3.900001;;;;;;;12.84;56.42773;96066.35;;;;
2022/07/17 02:21:50;;;;;;;4.5;3.900001;;;;;;;12.84;56.42773;96066.35;;;;
2022/07/17 02:22:50;;;;;;;4.349999;3.75;;;;;;;12.74;56.82813;96063.71;;;;
2022/07/17 02:23:51;;;;;;;4.349999;3.75;;;;;;;12.74;56.82813;96063.71;;;;
2022/07/17 02:24:51;;;;;;;4.349999;3.75;;;;;;;12.74;56.82813;96063.71;;;;
2022/07/17 02:25:52;;;;;;;4.349999;3.75;;;;;;;12.74;56.82813;96063.71;;;;
2022/07/17 02:26:52;;;;;;;4.349999;3.75;;;;;;;12.74;56.82813;96063.71;;;;
2022/07/17 02:27:53;;;;;;;4.349999;3.75;;;;;;;12.74;56.82813;96063.71;;;;
2022/07/17 02:28:54;;;;;;;4.349999;3.75;;;;;;;12.74;56.82813;96063.71;;;;
2022/07/17 02:29:54;;;;;;;4.349999;3.75;;;;;;;12.74;56.82813;96063.71;;;;
2022/07/17 02:30:55;;;;;;;4.349999;3.75;;;;;;;12.74;56.82813;96063.71;;;;
2022/07/17 02:31:55;;;;;;;4.349999;3.75;;;;;;;12.74;56.82813;96063.71;;;;
2022/07/17 02:32:56;;;;;;;5.5;3.7;;;;;;;12.59;57.14648;96066.17;;;;
2022/07/17 02:33:56;;;;;;;5.5;3.7;;;;;;;12.59;57.14648;96066.17;;;;
2022/07/17 02:34:57;;;;;;;5.5;3.7;;;;;;;12.59;57.14648;96066.17;;;;
2022/07/17 02:35:58;;;;;;;5.5;3.7;;;;;;;12.59;57.14648;96066.17;;;;
2022/07/17 02:36:59;;;;;;;5.5;3.7;;;;;;;12.59;57.14648;96066.17;;;;
2022/07/17 02:37:59;;;;;;;5.5;3.7;;;;;;;12.59;57.14648;96066.17;;;;
2022/07/17 02:39:00;;;;;;;5.5;3.7;;;;;;;12.59;57.14648;96066.17;;;;
2022/07/17 02:40:00;;;;;;;5.5;3.7;;;;;;;12.59;57.14648;96066.17;;;;
2022/07/17 02:41:01;;;;;;;5.5;3.7;;;;;;;12.59;57.14648;96066.17;;;;
2022/07/17 02:42:01;;;;;;;5.5;3.7;;;;;;;12.59;57.14648;96066.17;;;;
2022/07/17 02:43:02;;;;;;;5.5;3.7;;;;;;;12.59;57.14648;96066.17;;;;
2022/07/17 02:44:02;;;;;;;4.55;3.45;;;;;;;12.54;57.45508;96066.78;;;;
2022/07/17 02:45:03;;;;;;;4.55;3.45;;;;;;;12.54;57.45508;96066.78;;;;
2022/07/17 02:46:05;;;;;;;4.55;3.45;;;;;;;12.54;57.45508;96066.78;;;;
2022/07/17 02:47:06;;;;;;;4.55;3.45;;;;;;;12.54;57.45508;96066.78;;;;
2022/07/17 02:48:06;;;;;;;4.55;3.45;;;;;;;12.54;57.45508;96066.78;;;;
2022/07/17 02:49:07;;;;;;;4.55;3.45;;;;;;;12.54;57.45508;96066.78;;;;
2022/07/17 02:50:07;;;;;;;4.55;3.45;;;;;;;12.54;57.45508;96066.78;;;;
2022/07/17 02:51:09;;;;;;;4.55;3.45;;;;;;;12.54;57.45508;96066.78;;;;
2022/07/17 02:52:10;;;;;;;4.55;3.45;;;;;;;12.54;57.45508;96066.78;;;;
2022/07/17 02:53:11;;;;;;;4.55;3.45;;;;;;;12.54;57.45508;96066.78;;;;
2022/07/17 02:54:11;;;;;;;5.199999;3.6;;;;;;;12.43;57.71191;96060.75;;;;
2022/07/17 02:55:12;;;;;;;5.199999;3.6;;;;;;;12.43;57.71191;96060.75;;;;
2022/07/17 02:56:12;;;;;;;5.199999;3.6;;;;;;;12.43;57.71191;96060.75;;;;
2022/07/17 02:57:13;;;;;;;5.199999;3.6;;;;;;;12.43;57.71191;96060.75;;;;
2022/07/17 02:58:14;;;;;;;5.199999;3.6;;;;;;;12.43;57.71191;96060.75;;;;
2022/07/17 02:59:15;;;;;;;5.199999;3.6;;;;;;;12.43;57.71191;96060.75;;;;
2022/07/17 03:00:15;;;;;;;5.199999;3.6;;;;;;;12.43;57.71191;96060.75;;;;
2022/07/17 03:01:17;;;;;;;5.199999;3.6;;;;;;;12.43;57.71191;96060.75;;;;
2022/07/17 03:02:18;;;;;;;5.199999;3.6;;;;;;;12.43;57.71191;96060.75;;;;
2022/07/17 03:03:20;;;;;;;5.199999;3.6;;;;;;;12.43;57.71191;96060.75;;;;
2022/07/17 03:04:20;;;;;;;5.199999;3.6;;;;;;;12.43;57.71191;96060.75;;;;
2022/07/17 03:05:21;;;;;;;4.2;3.8;;;;;;;12.38;57.94336;96058.01;;;;
2022/07/17 03:06:22;;;;;;;4.2;3.8;;;;;;;12.38;57.94336;96058.01;;;;
2022/07/17 03:07:22;;;;;;;4.2;3.8;;;;;;;12.38;57.94336;96058.01;;;;
2022/07/17 03:08:23;;;;;;;4.2;3.8;;;;;;;12.38;57.94336;96058.01;;;;
2022/07/17 03:09:23;;;;;;;4.2;3.8;;;;;;;12.38;57.94336;96058.01;;;;
2022/07/17 03:10:24;;;;;;;4.2;3.8;;;;;;;12.38;57.94336;96058.01;;;;
2022/07/17 03:11:25;;;;;;;4.2;3.8;;;;;;;12.38;57.94336;96058.01;;;;
2022/07/17 03:12:25;;;;;;;4.2;3.8;;;;;;;12.38;57.94336;96058.01;;;;
2022/07/17 03:13:26;;;;;;;4.2;3.8;;;;;;;12.38;57.94336;96058.01;;;;
2022/07/17 03:14:26;;;;;;;4.2;3.8;;;;;;;12.38;57.94336;96058.01;;;;
2022/07/17 03:15:27;;;;;;;4.2;3.8;;;;;;;12.38;57.94336;96058.01;;;;
2022/07/17 03:16:27;;;;;;;4.95;3.900001;;;;;;;12.22;58.17285;96071.15;;;;
2022/07/17 03:17:28;;;;;;;4.95;3.900001;;;;;;;12.22;58.17285;96071.15;;;;
2022/07/17 03:18:28;;;;;;;4.95;3.900001;;;;;;;12.22;58.17285;96071.15;;;;
2022/07/17 03:19:29;;;;;;;4.95;3.900001;;;;;;;12.22;58.17285;96071.15;;;;
2022/07/17 03:20:29;;;;;;;4.95;3.900001;;;;;;;12.22;58.17285;96071.15;;;;
2022/07/17 03:21:30;;;;;;;4.95;3.900001;;;;;;;12.22;58.17285;96071.15;;;;
2022/07/17 03:22:30;;;;;;;4.95;3.900001;;;;;;;12.22;58.17285;96071.15;;;;
2022/07/17 03:23:31;;;;;;;4.95;3.900001;;;;;;;12.22;58.17285;96071.15;;;;
2022/07/17 03:24:31;;;;;;;4.95;3.900001;;;;;;;12.22;58.17285;96071.15;;;;
2022/07/17 03:25:32;;;;;;;4.95;3.900001;;;;;;;12.22;58.17285;96071.15;;;;
2022/07/17 03:26:32;;;;;;;4.05;3.65;;;;;;;12.09;58.46973;96064.11;;;;
2022/07/17 03:27:34;;;;;;;4.05;3.65;;;;;;;12.09;58.46973;96064.11;;;;
2022/07/17 03:28:34;;;;;;;4.05;3.65;;;;;;;12.09;58.46973;96064.11;;;;
2022/07/17 03:29:35;;;;;;;4.05;3.65;;;;;;;12.09;58.46973;96064.11;;;;
2022/07/17 03:30:35;;;;;;;4.05;3.65;;;;;;;12.09;58.46973;96064.11;;;;
2022/07/17 03:31:36;;;;;;;4.05;3.65;;;;;;;12.09;58.46973;96064.11;;;;
2022/07/17 03:32:36;;;;;;;4.05;3.65;;;;;;;12.09;58.46973;96064.11;;;;
2022/07/17 03:33:37;;;;;;;4.05;3.65;;;;;;;12.09;58.46973;96064.11;;;;
2022/07/17 03:34:37;;;;;;;4.05;3.65;;;;;;;12.09;58.46973;96064.11;;;;
2022/07/17 03:35:38;;;;;;;4.05;3.65;;;;;;;12.09;58.46973;96064.11;;;;
2022/07/17 03:36:38;;;;;;;4.05;3.65;;;;;;;12.09;58.46973;96064.11;;;;
2022/07/17 03:37:39;;;;;;;4.4;3.9;;;;;;;11.97;58.72559;96063.87;;;;
2022/07/17 03:38:40;;;;;;;4.4;3.9;;;;;;;11.97;58.72559;96063.87;;;;
2022/07/17 03:39:40;;;;;;;4.4;3.9;;;;;;;11.97;58.72559;96063.87;;;;
2022/07/17 03:40:41;;;;;;;4.4;3.9;;;;;;;11.97;58.72559;96063.87;;;;
2022/07/17 03:41:41;;;;;;;4.4;3.9;;;;;;;11.97;58.72559;96063.87;;;;
2022/07/17 03:42:42;;;;;;;4.4;3.9;;;;;;;11.97;58.72559;96063.87;;;;
2022/07/17 03:43:42;;;;;;;4.4;3.9;;;;;;;11.97;58.72559;96063.87;;;;
2022/07/17 03:44:43;;;;;;;4.4;3.9;;;;;;;11.97;58.72559;96063.87;;;;
2022/07/17 03:45:43;;;;;;;4.4;3.9;;;;;;;11.97;58.72559;96063.87;;;;
2022/07/17 03:46:44;;;;;;;4.4;3.9;;;;;;;11.97;58.72559;96063.87;;;;
2022/07/17 03:47:44;;;;;;;4.099999;3.7;;;;;;;11.98;58.74707;96066.94;;;;
2022/07/17 03:48:45;;;;;;;4.099999;3.7;;;;;;;11.98;58.74707;96066.94;;;;
2022/07/17 03:49:45;;;;;;;4.099999;3.7;;;;;;;11.98;58.74707;96066.94;;;;
2022/07/17 03:50:46;;;;;;;4.099999;3.7;;;;;;;11.98;58.74707;96066.94;;;;
2022/07/17 03:51:46;;;;;;;4.099999;3.7;;;;;;;11.98;58.74707;96066.94;;;;
2022/07/17 03:52:47;;;;;;;4.099999;3.7;;;;;;;11.98;58.74707;96066.94;;;;
2022/07/17 03:53:47;;;;;;;4.099999;3.7;;;;;;;11.98;58.74707;96066.94;;;;
2022/07/17 03:54:48;;;;;;;4.099999;3.7;;;;;;;11.98;58.74707;96066.94;;;;
2022/07/17 03:55:48;;;;;;;4.099999;3.7;;;;;;;11.98;58.74707;96066.94;;;;
2022/07/17 03:56:49;;;;;;;4.099999;3.7;;;;;;;11.98;58.74707;96066.94;;;;
2022/07/17 03:57:49;;;;;;;4.099999;3.7;;;;;;;11.98;58.74707;96066.94;;;;
2022/07/17 03:58:50;;;;;;;4.8;3.95;;;;;;;11.9;58.86719;96059.06;;;;
2022/07/17 03:59:50;;;;;;;4.8;3.95;;;;;;;11.9;58.86719;96059.06;;;;
2022/07/17 04:00:51;;;;;;;4.8;3.95;;;;;;;11.9;58.86719;96059.06;;;;
2022/07/17 04:01:53;;;;;;;4.8;3.95;;;;;;;11.9;58.86719;96059.06;;;;
2022/07/17 04:02:53;;;;;;;4.8;3.95;;;;;;;11.9;58.86719;96059.06;;;;
2022/07/17 04:03:54;;;;;;;4.8;3.95;;;;;;;11.9;58.86719;96059.06;;;;
2022/07/17 04:04:55;;;;;;;4.8;3.95;;;;;;;11.9;58.86719;96059.06;;;;
2022/07/17 04:05:55;;;;;;;4.8;3.95;;;;;;;11.9;58.86719;96059.06;;;;
2022/07/17 04:06:56;;;;;;;4.8;3.95;;;;;;;11.9;58.86719;96059.06;;;;
2022/07/17 04:07:56;;;;;;;4.8;3.95;;;;;;;11.9;58.86719;96059.06;;;;
2022/07/17 04:08:56;;;;;;;5.05;3.4;;;;;;;11.92;58.99023;96064.58;;;;
2022/07/17 04:09:57;;;;;;;5.05;3.4;;;;;;;11.92;58.99023;96064.58;;;;
2022/07/17 04:10:59;;;;;;;5.05;3.4;;;;;;;11.92;58.99023;96064.58;;;;
2022/07/17 04:11:59;;;;;;;5.05;3.4;;;;;;;11.92;58.99023;96064.58;;;;
2022/07/17 04:13:00;;;;;;;5.05;3.4;;;;;;;11.92;58.99023;96064.58;;;;
2022/07/17 04:14:00;;;;;;;5.05;3.4;;;;;;;11.92;58.99023;96064.58;;;;
2022/07/17 04:15:01;;;;;;;5.05;3.4;;;;;;;11.92;58.99023;96064.58;;;;
2022/07/17 04:16:02;;;;;;;5.05;3.4;;;;;;;11.92;58.99023;96064.58;;;;
2022/07/17 04:17:03;;;;;;;5.05;3.4;;;;;;;11.92;58.99023;96064.58;;;;
2022/07/17 04:18:04;;;;;;;5.05;3.4;;;;;;;11.92;58.99023;96064.58;;;;
2022/07/17 04:19:04;;;;;;;5.05;3.4;;;;;;;11.92;58.99023;96064.58;;;;
2022/07/17 04:20:05;;;;;;;4.699999;3.750001;;;;;;;11.89;59.07129;96084.44;;;;
2022/07/17 04:21:06;;;;;;;4.699999;3.750001;;;;;;;11.89;59.07129;96084.44;;;;
2022/07/17 04:22:09;;;;;;;4.699999;3.750001;;;;;;;11.89;59.07129;96084.44;;;;
2022/07/17 04:23:09;;;;;;;4.699999;3.750001;;;;;;;11.89;59.07129;96084.44;;;;
2022/07/17 04:24:10;;;;;;;4.699999;3.750001;;;;;;;11.89;59.07129;96084.44;;;;
2022/07/17 04:25:10;;;;;;;4.699999;3.750001;;;;;;;11.89;59.07129;96084.44;;;;
2022/07/17 04:26:11;;;;;;;4.699999;3.750001;;;;;;;11.89;59.07129;96084.44;;;;
2022/07/17 04:27:11;;;;;;;4.699999;3.750001;;;;;;;11.89;59.07129;96084.44;;;;
2022/07/17 04:28:12;;;;;;;4.699999;3.750001;;;;;;;11.89;59.07129;96084.44;;;;
2022/07/17 04:29:13;;;;;;;4.699999;3.750001;;;;;;;11.89;59.07129;96084.44;;;;
2022/07/17 04:30:13;;;;;;;4.25;3.6;;;;;;;11.99;59.12891;96080.9;;;;
2022/07/17 04:31:14;;;;;;;4.25;3.6;;;;;;;11.99;59.12891;96080.9;;;;
2022/07/17 04:32:15;;;;;;;4.25;3.6;;;;;;;11.99;59.12891;96080.9;;;;
2022/07/17 04:33:15;;;;;;;4.25;3.6;;;;;;;11.99;59.12891;96080.9;;;;
2022/07/17 04:34:17;;;;;;;4.25;3.6;;;;;;;11.99;59.12891;96080.9;;;;
2022/07/17 04:35:17;;;;;;;4.25;3.6;;;;;;;11.99;59.12891;96080.9;;;;
2022/07/17 04:36:18;;;;;;;4.25;3.6;;;;;;;11.99;59.12891;96080.9;;;;
2022/07/17 04:37:18;;;;;;;4.25;3.6;;;;;;;11.99;59.12891;96080.9;;;;
2022/07/17 04:38:19;;;;;;;4.25;3.6;;;;;;;11.99;59.12891;96080.9;;;;
2022/07/17 04:39:20;;;;;;;4.25;3.6;;;;;;;11.99;59.12891;96080.9;;;;
2022/07/17 04:40:20;;;;;;;4.25;3.6;;;;;;;11.99;59.12891;96080.9;;;;
2022/07/17 04:41:21;;;;;;;4.55;3.7;;;;;;;12.08;59.24902;96088.95;;;;
2022/07/17 04:42:21;;;;;;;4.55;3.7;;;;;;;12.08;59.24902;96088.95;;;;
2022/07/17 04:43:22;;;;;;;4.55;3.7;;;;;;;12.08;59.24902;96088.95;;;;
2022/07/17 04:44:23;;;;;;;4.55;3.7;;;;;;;12.08;59.24902;96088.95;;;;
2022/07/17 04:45:23;;;;;;;4.55;3.7;;;;;;;12.08;59.24902;96088.95;;;;
2022/07/17 04:46:24;;;;;;;4.55;3.7;;;;;;;12.08;59.24902;96088.95;;;;
2022/07/17 04:47:24;;;;;;;4.55;3.7;;;;;;;12.08;59.24902;96088.95;;;;
2022/07/17 04:48:25;;;;;;;4.55;3.7;;;;;;;12.08;59.24902;96088.95;;;;
2022/07/17 04:49:26;;;;;;;4.55;3.7;;;;;;;12.08;59.24902;96088.95;;;;
2022/07/17 04:50:26;;;;;;;4.55;3.7;;;;;;;12.08;59.24902;96088.95;;;;
2022/07/17 04:51:27;;;;;;;4.55;3.7;;;;;;;12.08;59.24902;96088.95;;;;
2022/07/17 04:52:27;;;;;;;4.3;3.8;;;;;;;12.31;59.2793;96082.36;;;;
2022/07/17 04:53:28;;;;;;;4.3;3.8;;;;;;;12.31;59.2793;96082.36;;;;
2022/07/17 04:54:29;;;;;;;4.3;3.8;;;;;;;12.31;59.2793;96082.36;;;;
2022/07/17 04:55:30;;;;;;;4.3;3.8;;;;;;;12.31;59.2793;96082.36;;;;
2022/07/17 04:56:30;;;;;;;4.3;3.8;;;;;;;12.31;59.2793;96082.36;;;;
2022/07/17 04:57:31;;;;;;;4.3;3.8;;;;;;;12.31;59.2793;96082.36;;;;
2022/07/17 04:58:31;;;;;;;4.3;3.8;;;;;;;12.31;59.2793;96082.36;;;;
2022/07/17 04:59:32;;;;;;;4.3;3.8;;;;;;;12.31;59.2793;96082.36;;;;
2022/07/17 05:00:32;;;;;;;4.3;3.8;;;;;;;12.31;59.2793;96082.36;;;;
2022/07/17 05:01:34;;;;;;;4.3;3.8;;;;;;;12.31;59.2793;96082.36;;;;
2022/07/17 05:02:34;;;;;;;5.349999;3.65;;;;;;;12.57;59.24023;96087.68;;;;
2022/07/17 05:03:37;;;;;;;5.349999;3.65;;;;;;;12.57;59.24023;96087.68;;;;
2022/07/17 05:04:38;;;;;;;5.349999;3.65;;;;;;;12.57;59.24023;96087.68;;;;
2022/07/17 05:05:40;;;;;;;5.349999;3.65;;;;;;;12.57;59.24023;96087.68;;;;
2022/07/17 05:06:40;;;;;;;5.349999;3.65;;;;;;;12.57;59.24023;96087.68;;;;
2022/07/17 05:07:41;;;;;;;5.349999;3.65;;;;;;;12.57;59.24023;96087.68;;;;
2022/07/17 05:08:41;;;;;;;5.349999;3.65;;;;;;;12.57;59.24023;96087.68;;;;
2022/07/17 05:09:42;;;;;;;5.349999;3.65;;;;;;;12.57;59.24023;96087.68;;;;
2022/07/17 05:10:42;;;;;;;5.349999;3.65;;;;;;;12.57;59.24023;96087.68;;;;
2022/07/17 05:11:43;;;;;;;5.349999;3.65;;;;;;;12.57;59.24023;96087.68;;;;
2022/07/17 05:12:43;;;;;;;5.349999;3.65;;;;;;;12.57;59.24023;96087.68;;;;
2022/07/17 05:13:44;;;;;;;5.049999;3.4;;;;;;;12.95;59.32324;96082.05;;;;
2022/07/17 05:14:44;;;;;;;5.049999;3.4;;;;;;;12.95;59.32324;96082.05;;;;
2022/07/17 05:15:45;;;;;;;5.049999;3.4;;;;;;;12.95;59.32324;96082.05;;;;
2022/07/17 05:16:45;;;;;;;5.049999;3.4;;;;;;;12.95;59.32324;96082.05;;;;
2022/07/17 05:17:46;;;;;;;5.049999;3.4;;;;;;;12.95;59.32324;96082.05;;;;
2022/07/17 05:18:46;;;;;;;5.049999;3.4;;;;;;;12.95;59.32324;96082.05;;;;
2022/07/17 05:19:47;;;;;;;5.049999;3.4;;;;;;;12.95;59.32324;96082.05;;;;
2022/07/17 05:20:47;;;;;;;5.049999;3.4;;;;;;;12.95;59.32324;96082.05;;;;
2022/07/17 05:21:48;;;;;;;5.049999;3.4;;;;;;;12.95;59.32324;96082.05;;;;
2022/07/17 05:22:48;;;;;;;5.049999;3.4;;;;;;;12.95;59.32324;96082.05;;;;
2022/07/17 05:23:49;;;;;;;6.45;3.8;;;;;;;13.38;59.31641;96079.21;;;;
2022/07/17 05:24:49;;;;;;;6.45;3.8;;;;;;;13.38;59.31641;96079.21;;;;
2022/07/17 05:25:50;;;;;;;6.45;3.8;;;;;;;13.38;59.31641;96079.21;;;;
2022/07/17 05:26:50;;;;;;;6.45;3.8;;;;;;;13.38;59.31641;96079.21;;;;
2022/07/17 05:27:51;;;;;;;6.45;3.8;;;;;;;13.38;59.31641;96079.21;;;;
2022/07/17 05:28:51;;;;;;;6.45;3.8;;;;;;;13.38;59.31641;96079.21;;;;
2022/07/17 05:29:52;;;;;;;6.45;3.8;;;;;;;13.38;59.31641;96079.21;;;;
2022/07/17 05:30:53;;;;;;;6.45;3.8;;;;;;;13.38;59.31641;96079.21;;;;
2022/07/17 05:31:53;;;;;;;6.45;3.8;;;;;;;13.38;59.31641;96079.21;;;;
2022/07/17 05:32:54;;;;;;;6.45;3.8;;;;;;;13.38;59.31641;96079.21;;;;
2022/07/17 05:33:54;;;;;;;6.45;3.8;;;;;;;13.38;59.31641;96079.21;;;;
2022/07/17 05:34:55;;;;;;;4.450001;4;;;;;;;13.98;59.07031;96077.4;;;;
2022/07/17 05:35:55;;;;;;;4.450001;4;;;;;;;13.98;59.07031;96077.4;;;;
2022/07/17 05:36:56;;;;;;;4.450001;4;;;;;;;13.98;59.07031;96077.4;;;;
2022/07/17 05:37:56;;;;;;;4.450001;4;;;;;;;13.98;59.07031;96077.4;;;;
2022/07/17 05:38:57;;;;;;;4.450001;4;;;;;;;13.98;59.07031;96077.4;;;;
2022/07/17 05:39:57;;;;;;;4.450001;4;;;;;;;13.98;59.07031;96077.4;;;;
2022/07/17 05:40:58;;;;;;;4.450001;4;;;;;;;13.98;59.07031;96077.4;;;;
2022/07/17 05:41:58;;;;;;;4.450001;4;;;;;;;13.98;59.07031;96077.4;;;;
2022/07/17 05:43:00;;;;;;;4.450001;4;;;;;;;13.98;59.07031;96077.4;;;;